createdAt,value
2019-04-07T00:00:47.686Z,7.77
2019-04-07T00:01:58.433Z,7.74
2019-04-07T00:03:09.196Z,7.73
2019-04-07T00:04:20.346Z,7.71
2019-04-07T00:05:31.065Z,7.70
2019-04-07T00:06:41.642Z,7.67
2019-04-07T00:07:52.959Z,7.65
2019-04-07T00:09:03.884Z,7.63
2019-04-07T00:10:15.504Z,7.60
2019-04-07T00:11:25.932Z,7.58
2019-04-07T00:12:36.973Z,7.56
2019-04-07T00:13:48.083Z,7.54
2019-04-07T00:14:58.310Z,7.52
2019-04-07T00:16:09.781Z,7.50
2019-04-07T00:17:20.587Z,7.49
2019-04-07T00:18:30.794Z,7.48
2019-04-07T00:19:41.474Z,7.48
2019-04-07T00:20:52.884Z,7.46
2019-04-07T00:22:03.290Z,7.46
2019-04-07T00:23:14.133Z,7.45
2019-04-07T00:24:24.684Z,7.44
2019-04-07T00:25:35.416Z,7.45
2019-04-07T00:26:46.207Z,7.44
2019-04-07T00:27:58.433Z,7.44
2019-04-07T00:29:08.812Z,7.44
2019-04-07T00:30:19.792Z,7.44
2019-04-07T00:31:30.339Z,7.44
2019-04-07T00:32:42.770Z,7.44
2019-04-07T00:33:53.459Z,7.44
2019-04-07T00:35:04.286Z,7.45
2019-04-07T00:36:16.561Z,7.44
2019-04-07T00:37:27.329Z,7.45
2019-04-07T00:38:38.360Z,7.45
2019-04-07T00:39:48.849Z,7.44
2019-04-07T00:41:00.165Z,7.43
2019-04-07T00:42:10.498Z,7.43
2019-04-07T00:43:21.213Z,7.43
2019-04-07T00:44:32.715Z,7.45
2019-04-07T00:45:42.770Z,7.45
2019-04-07T00:46:54.053Z,7.46
2019-04-07T00:48:04.333Z,7.46
2019-04-07T00:49:16.113Z,7.46
2019-04-07T00:50:26.913Z,7.46
2019-04-07T00:51:37.703Z,7.46
2019-04-07T00:52:49.012Z,7.45
2019-04-07T00:53:59.741Z,7.45
2019-04-07T00:55:10.046Z,7.44
2019-04-07T00:56:20.897Z,7.44
2019-04-07T00:57:31.704Z,7.42
2019-04-07T00:58:42.376Z,7.41
2019-04-07T00:59:53.197Z,7.41
2019-04-07T01:01:04.247Z,7.41
2019-04-07T01:02:15.728Z,7.41
2019-04-07T01:03:26.005Z,7.41
2019-04-07T01:04:36.605Z,7.42
2019-04-07T01:05:47.938Z,7.41
2019-04-07T01:06:58.162Z,7.41
2019-04-07T01:08:09.580Z,7.41
2019-04-07T01:09:19.911Z,7.40
2019-04-07T01:10:30.497Z,7.40
2019-04-07T01:11:41.270Z,7.39
2019-04-07T01:12:52.203Z,7.38
2019-04-07T01:14:02.826Z,7.36
2019-04-07T01:15:14.058Z,7.36
2019-04-07T01:16:25.206Z,7.34
2019-04-07T01:17:35.448Z,7.32
2019-04-07T01:18:46.768Z,7.32
2019-04-07T01:19:57.001Z,7.29
2019-04-07T01:21:08.295Z,7.28
2019-04-07T01:22:19.271Z,7.26
2019-04-07T01:23:29.838Z,7.25
2019-04-07T01:24:40.720Z,7.23
2019-04-07T01:25:52.203Z,7.22
2019-04-07T01:27:02.863Z,7.20
2019-04-07T01:28:13.055Z,7.19
2019-04-07T01:29:24.358Z,7.17
2019-04-07T01:30:34.940Z,7.16
2019-04-07T01:31:45.726Z,7.15
2019-04-07T01:32:56.600Z,7.14
2019-04-07T01:34:07.584Z,7.14
2019-04-07T01:35:19.203Z,7.13
2019-04-07T01:36:29.982Z,7.12
2019-04-07T01:37:40.752Z,7.11
2019-04-07T01:38:52.109Z,7.10
2019-04-07T01:40:03.043Z,7.09
2019-04-07T01:41:13.137Z,7.07
2019-04-07T01:42:24.387Z,7.06
2019-04-07T01:43:35.698Z,7.04
2019-04-07T01:44:47.231Z,7.03
2019-04-07T01:45:57.239Z,7.02
2019-04-07T01:47:08.010Z,6.98
2019-04-07T01:48:19.286Z,6.96
2019-04-07T01:49:30.194Z,6.94
2019-04-07T01:50:40.330Z,6.92
2019-04-07T01:51:51.806Z,6.90
2019-04-07T01:53:02.476Z,6.88
2019-04-07T01:54:12.876Z,6.87
2019-04-07T01:55:23.581Z,6.84
2019-04-07T01:56:34.219Z,6.83
2019-04-07T01:57:45.386Z,6.80
2019-04-07T01:58:56.154Z,6.78
2019-04-07T02:00:07.190Z,6.77
2019-04-07T02:01:18.355Z,6.74
2019-04-07T02:02:29.129Z,6.73
2019-04-07T02:03:39.858Z,6.70
2019-04-07T02:04:51.303Z,6.69
2019-04-07T02:06:03.816Z,6.68
2019-04-07T02:07:12.853Z,6.66
2019-04-07T02:08:23.233Z,6.64
2019-04-07T02:09:33.762Z,6.64
2019-04-07T02:10:44.642Z,6.61
2019-04-07T02:11:55.242Z,6.60
2019-04-07T02:13:06.007Z,6.59
2019-04-07T02:14:16.773Z,6.57
2019-04-07T02:15:28.186Z,6.57
2019-04-07T02:16:38.301Z,6.56
2019-04-07T02:17:49.067Z,6.55
2019-04-07T02:18:59.829Z,6.55
2019-04-07T02:20:11.165Z,6.55
2019-04-07T02:21:21.571Z,6.54
2019-04-07T02:22:32.748Z,6.54
2019-04-07T02:23:43.711Z,6.54
2019-04-07T02:24:54.295Z,6.53
2019-04-07T02:26:04.889Z,6.53
2019-04-07T02:27:16.367Z,6.54
2019-04-07T02:28:26.454Z,6.53
2019-04-07T02:29:37.391Z,6.53
2019-04-07T02:30:48.161Z,6.52
2019-04-07T02:31:58.735Z,6.51
2019-04-07T02:33:10.560Z,6.50
2019-04-07T02:34:20.870Z,6.48
2019-04-07T02:35:31.863Z,6.47
2019-04-07T02:36:41.965Z,6.46
2019-04-07T02:37:52.810Z,6.46
2019-04-07T02:39:03.287Z,6.45
2019-04-07T02:40:14.050Z,6.46
2019-04-07T02:41:24.810Z,6.47
2019-04-07T02:42:36.454Z,6.45
2019-04-07T02:43:46.547Z,6.45
2019-04-07T02:44:57.328Z,6.44
2019-04-07T02:46:07.839Z,6.45
2019-04-07T02:47:18.595Z,6.44
2019-04-07T02:48:29.855Z,6.44
2019-04-07T02:49:41.275Z,6.43
2019-04-07T02:50:51.488Z,6.42
2019-04-07T02:52:02.464Z,6.40
2019-04-07T02:53:13.486Z,6.38
2019-04-07T02:54:24.599Z,6.37
2019-04-07T02:55:35.482Z,6.35
2019-04-07T02:56:46.158Z,6.32
2019-04-07T02:57:56.356Z,6.30
2019-04-07T02:59:07.870Z,6.28
2019-04-07T03:00:18.409Z,6.27
2019-04-07T03:01:29.706Z,6.25
2019-04-07T03:02:41.106Z,6.22
2019-04-07T03:03:51.155Z,6.20
2019-04-07T03:05:02.171Z,6.20
2019-04-07T03:06:20.810Z,6.18
2019-04-07T03:07:25.034Z,6.16
2019-04-07T03:08:35.672Z,6.14
2019-04-07T03:09:45.903Z,6.12
2019-04-07T03:10:57.004Z,6.11
2019-04-07T03:12:07.423Z,6.08
2019-04-07T03:13:18.170Z,6.07
2019-04-07T03:14:28.927Z,6.03
2019-04-07T03:15:40.770Z,6.01
2019-04-07T03:16:51.468Z,5.99
2019-04-07T03:18:01.215Z,5.97
2019-04-07T03:19:13.071Z,5.93
2019-04-07T03:20:23.092Z,5.91
2019-04-07T03:21:35.124Z,5.88
2019-04-07T03:22:45.866Z,5.87
2019-04-07T03:23:56.520Z,5.84
2019-04-07T03:25:07.141Z,5.82
2019-04-07T03:26:18.483Z,5.81
2019-04-07T03:27:28.551Z,5.79
2019-04-07T03:28:40.021Z,5.77
2019-04-07T03:29:50.087Z,5.74
2019-04-07T03:31:02.233Z,5.73
2019-04-07T03:32:18.302Z,5.70
2019-04-07T03:33:25.316Z,5.67
2019-04-07T03:34:36.225Z,5.65
2019-04-07T03:35:48.506Z,5.62
2019-04-07T03:37:22.602Z,5.60
2019-04-07T03:38:08.319Z,5.59
2019-04-07T03:39:19.194Z,5.58
2019-04-07T03:40:30.232Z,5.56
2019-04-07T03:41:40.922Z,5.55
2019-04-07T03:42:51.606Z,5.54
2019-04-07T03:44:03.242Z,5.54
2019-04-07T03:45:13.591Z,5.54
2019-04-07T03:46:23.861Z,5.54
2019-04-07T03:47:35.409Z,5.54
2019-04-07T03:48:45.922Z,5.53
2019-04-07T03:49:57.018Z,5.54
2019-04-07T03:51:09.090Z,5.52
2019-04-07T03:52:19.385Z,5.51
2019-04-07T03:53:30.419Z,5.50
2019-04-07T03:54:40.206Z,5.49
2019-04-07T03:55:51.325Z,5.48
2019-04-07T03:57:01.667Z,5.45
2019-04-07T03:58:12.421Z,5.44
2019-04-07T03:59:23.164Z,5.41
2019-04-07T04:00:34.108Z,5.40
2019-04-07T04:01:45.457Z,5.39
2019-04-07T04:02:55.588Z,5.38
2019-04-07T04:04:07.325Z,5.37
2019-04-07T04:05:17.068Z,5.37
2019-04-07T04:06:28.288Z,5.38
2019-04-07T04:07:39.796Z,5.40
2019-04-07T04:08:49.495Z,5.43
2019-04-07T04:10:01.073Z,5.46
2019-04-07T04:11:11.656Z,5.50
2019-04-07T04:12:22.694Z,5.53
2019-04-07T04:13:32.732Z,5.56
2019-04-07T04:14:45.275Z,5.60
2019-04-07T04:15:54.961Z,5.62
2019-04-07T04:17:06.294Z,5.64
2019-04-07T04:18:16.447Z,5.67
2019-04-07T04:19:28.616Z,5.69
2019-04-07T04:20:38.917Z,5.72
2019-04-07T04:21:49.659Z,5.73
2019-04-07T04:23:00.397Z,5.74
2019-04-07T04:24:11.138Z,5.75
2019-04-07T04:25:23.153Z,5.75
2019-04-07T04:26:34.362Z,5.75
2019-04-07T04:27:44.364Z,5.75
2019-04-07T04:28:55.240Z,5.76
2019-04-07T04:30:05.853Z,5.76
2019-04-07T04:31:17.958Z,5.77
2019-04-07T04:32:28.836Z,5.75
2019-04-07T04:33:39.615Z,5.77
2019-04-07T04:34:50.185Z,5.77
2019-04-07T04:36:00.884Z,5.76
2019-04-07T04:37:12.605Z,5.75
2019-04-07T04:38:22.468Z,5.76
2019-04-07T04:39:33.492Z,5.75
2019-04-07T04:40:45.749Z,5.75
2019-04-07T04:41:55.798Z,5.75
2019-04-07T04:43:06.515Z,5.74
2019-04-07T04:44:17.253Z,5.74
2019-04-07T04:45:28.006Z,5.74
2019-04-07T04:46:38.816Z,5.73
2019-04-07T04:47:49.482Z,5.74
2019-04-07T04:49:00.223Z,5.74
2019-04-07T04:50:10.971Z,5.75
2019-04-07T04:51:21.714Z,5.76
2019-04-07T04:52:33.032Z,5.75
2019-04-07T04:53:44.302Z,5.75
2019-04-07T04:54:54.923Z,5.78
2019-04-07T04:56:05.677Z,5.77
2019-04-07T04:57:16.422Z,5.77
2019-04-07T04:58:28.823Z,5.77
2019-04-07T04:59:38.949Z,5.77
2019-04-07T05:00:50.749Z,5.77
2019-04-07T05:02:01.095Z,5.77
2019-04-07T05:03:11.219Z,5.79
2019-04-07T05:04:22.876Z,5.79
2019-04-07T05:05:32.811Z,5.82
2019-04-07T05:06:43.600Z,5.84
2019-04-07T05:08:00.656Z,5.85
2019-04-07T05:09:05.571Z,5.87
2019-04-07T05:10:15.668Z,5.89
2019-04-07T05:11:26.488Z,5.92
2019-04-07T05:12:37.926Z,5.94
2019-04-07T05:13:48.924Z,5.97
2019-04-07T05:14:59.218Z,5.99
2019-04-07T05:16:10.595Z,6.02
2019-04-07T05:17:20.941Z,6.05
2019-04-07T05:18:32.305Z,6.07
2019-04-07T05:19:42.862Z,6.11
2019-04-07T05:20:53.133Z,6.14
2019-04-07T05:22:03.674Z,6.16
2019-04-07T05:23:14.404Z,6.19
2019-04-07T05:24:25.839Z,6.23
2019-04-07T05:25:36.143Z,6.25
2019-04-07T05:26:47.730Z,6.29
2019-04-07T05:27:58.562Z,6.31
2019-04-07T05:29:09.300Z,6.35
2019-04-07T05:30:19.874Z,6.38
2019-04-07T05:31:30.497Z,6.40
2019-04-07T05:32:41.736Z,6.42
2019-04-07T05:33:52.163Z,6.45
2019-04-07T05:35:03.182Z,6.49
2019-04-07T05:36:13.619Z,6.51
2019-04-07T05:37:24.363Z,6.54
2019-04-07T05:38:35.691Z,6.58
2019-04-07T05:39:46.277Z,6.60
2019-04-07T05:40:56.636Z,6.63
2019-04-07T05:42:08.008Z,6.66
2019-04-07T05:43:18.490Z,6.68
2019-04-07T05:44:28.947Z,6.73
2019-04-07T05:45:39.987Z,6.77
2019-04-07T05:46:50.488Z,6.80
2019-04-07T05:48:01.247Z,6.83
2019-04-07T05:49:13.729Z,6.86
2019-04-07T05:50:26.779Z,6.88
2019-04-07T05:51:33.880Z,6.91
2019-04-07T05:52:44.292Z,6.95
2019-04-07T05:53:55.048Z,6.98
2019-04-07T05:55:05.802Z,7.03
2019-04-07T05:56:16.563Z,7.07
2019-04-07T05:57:30.768Z,7.09
2019-04-07T05:58:40.699Z,7.13
2019-04-07T05:59:48.841Z,7.16
2019-04-07T06:01:00.233Z,7.21
2019-04-07T06:02:11.104Z,7.25
2019-04-07T06:03:21.953Z,7.30
2019-04-07T06:04:31.980Z,7.35
2019-04-07T06:05:47.273Z,7.39
2019-04-07T06:06:55.370Z,7.44
2019-04-07T06:08:20.866Z,7.47
2019-04-07T06:09:15.878Z,7.50
2019-04-07T06:10:28.675Z,7.53
2019-04-07T06:11:36.542Z,7.56
2019-04-07T06:12:48.264Z,7.58
2019-04-07T06:13:58.062Z,7.62
2019-04-07T06:15:09.611Z,7.67
2019-04-07T06:16:20.968Z,7.71
2019-04-07T06:17:30.366Z,7.76
2019-04-07T06:18:41.168Z,7.81
2019-04-07T06:19:52.686Z,7.85
2019-04-07T06:21:02.822Z,7.90
2019-04-07T06:22:13.425Z,7.95
2019-04-07T06:23:25.767Z,8.00
2019-04-07T06:24:35.134Z,8.05
2019-04-07T06:25:46.414Z,8.10
2019-04-07T06:26:57.505Z,8.14
2019-04-07T06:28:07.734Z,8.19
2019-04-07T06:29:19.843Z,8.23
2019-04-07T06:30:31.240Z,8.31
2019-04-07T06:31:40.286Z,8.38
2019-04-07T06:32:51.562Z,8.44
2019-04-07T06:34:01.780Z,8.49
2019-04-07T06:35:13.956Z,8.55
2019-04-07T06:36:26.284Z,8.61
2019-04-07T06:37:34.101Z,8.67
2019-04-07T06:38:50.901Z,8.74
2019-04-07T06:39:55.775Z,8.80
2019-04-07T06:41:07.281Z,8.86
2019-04-07T06:42:17.595Z,8.90
2019-04-07T06:43:28.002Z,8.96
2019-04-07T06:44:38.781Z,8.99
2019-04-07T06:45:52.736Z,9.03
2019-04-07T06:47:03.475Z,9.09
2019-04-07T06:48:11.404Z,9.14
2019-04-07T06:49:21.979Z,9.20
2019-04-07T06:50:44.390Z,9.25
2019-04-07T06:51:43.491Z,9.31
2019-04-07T06:52:54.271Z,9.34
2019-04-07T06:54:05.755Z,9.38
2019-04-07T06:55:15.854Z,9.44
2019-04-07T06:56:26.638Z,9.48
2019-04-07T06:57:37.747Z,9.53
2019-04-07T06:58:48.238Z,9.57
2019-04-07T06:59:58.995Z,9.62
2019-04-07T07:01:10.089Z,9.65
2019-04-07T07:02:20.828Z,9.68
2019-04-07T07:03:34.360Z,9.72
2019-04-07T07:04:45.475Z,9.77
2019-04-07T07:05:54.923Z,9.80
2019-04-07T07:07:06.604Z,9.83
2019-04-07T07:08:19.377Z,9.85
2019-04-07T07:09:27.822Z,9.88
2019-04-07T07:10:40.139Z,9.93
2019-04-07T07:11:49.635Z,9.98
2019-04-07T07:13:02.790Z,10.01
2019-04-07T07:14:14.020Z,10.03
2019-04-07T07:15:21.818Z,10.06
2019-04-07T07:16:32.601Z,10.09
2019-04-07T07:17:43.425Z,10.12
2019-04-07T07:18:56.048Z,10.14
2019-04-07T07:20:06.777Z,10.16
2019-04-07T07:21:17.023Z,10.21
2019-04-07T07:22:28.588Z,10.24
2019-04-07T07:23:38.671Z,10.28
2019-04-07T07:24:50.248Z,10.31
2019-04-07T07:26:02.898Z,10.35
2019-04-07T07:27:12.256Z,10.37
2019-04-07T07:28:22.701Z,10.42
2019-04-07T07:29:33.713Z,10.44
2019-04-07T07:30:43.759Z,10.47
2019-04-07T07:31:59.964Z,10.50
2019-04-07T07:33:08.858Z,10.54
2019-04-07T07:34:16.350Z,10.57
2019-04-07T07:35:27.304Z,10.61
2019-04-07T07:36:38.220Z,10.63
2019-04-07T07:37:48.438Z,10.67
2019-04-07T07:39:02.130Z,10.71
2019-04-07T07:40:12.132Z,10.74
2019-04-07T07:41:23.083Z,10.76
2019-04-07T07:42:32.118Z,10.79
2019-04-07T07:43:42.587Z,10.83
2019-04-07T07:44:53.588Z,10.86
2019-04-07T07:46:04.226Z,10.90
2019-04-07T07:47:15.043Z,10.91
2019-04-07T07:48:27.329Z,10.92
2019-04-07T07:49:40.034Z,10.94
2019-04-07T07:50:47.845Z,10.97
2019-04-07T07:51:58.306Z,11.01
2019-04-07T07:53:09.124Z,11.03
2019-04-07T07:54:20.679Z,11.06
2019-04-07T07:55:35.962Z,11.09
2019-04-07T07:56:47.421Z,11.15
2019-04-07T07:57:56.470Z,11.20
2019-04-07T07:59:03.634Z,11.25
2019-04-07T08:00:14.564Z,11.29
2019-04-07T08:01:25.637Z,11.32
2019-04-07T08:02:36.460Z,11.36
2019-04-07T08:03:46.935Z,11.40
2019-04-07T08:04:59.120Z,11.45
2019-04-07T08:06:08.396Z,11.49
2019-04-07T08:07:19.382Z,11.55
2019-04-07T08:08:29.842Z,11.62
2019-04-07T08:09:42.014Z,11.67
2019-04-07T08:10:51.706Z,11.71
2019-04-07T08:12:03.486Z,11.75
2019-04-07T08:13:13.097Z,11.79
2019-04-07T08:14:23.919Z,11.85
2019-04-07T08:15:34.770Z,11.92
2019-04-07T08:16:45.603Z,11.96
2019-04-07T08:17:56.439Z,12.01
2019-04-07T08:19:09.440Z,12.07
2019-04-07T08:20:18.587Z,12.16
2019-04-07T08:21:29.462Z,12.26
2019-04-07T08:22:43.316Z,12.35
2019-04-07T08:23:51.149Z,12.44
2019-04-07T08:25:02.430Z,12.54
2019-04-07T08:26:13.415Z,12.62
2019-04-07T08:27:23.961Z,12.69
2019-04-07T08:28:35.857Z,12.74
2019-04-07T08:29:45.326Z,12.84
2019-04-07T08:30:56.685Z,12.94
2019-04-07T08:32:07.691Z,13.02
2019-04-07T08:33:18.949Z,13.10
2019-04-07T08:34:31.553Z,13.16
2019-04-07T08:35:40.775Z,13.25
2019-04-07T08:36:50.932Z,13.35
2019-04-07T08:38:01.787Z,13.49
2019-04-07T08:39:22.955Z,13.63
2019-04-07T08:40:25.289Z,13.80
2019-04-07T08:41:39.675Z,14.21
2019-04-07T08:42:49.091Z,15.00
2019-04-07T08:43:58.042Z,16.32
2019-04-07T08:45:09.429Z,17.96
2019-04-07T08:46:20.060Z,19.59
2019-04-07T08:47:31.335Z,21.03
2019-04-07T08:48:42.314Z,22.26
2019-04-07T08:49:55.350Z,23.39
2019-04-07T08:51:04.717Z,24.31
2019-04-07T08:52:15.440Z,25.06
2019-04-07T08:53:26.544Z,25.82
2019-04-07T08:54:37.646Z,26.54
2019-04-07T08:55:50.062Z,27.16
2019-04-07T08:57:00.226Z,27.82
2019-04-07T08:58:23.260Z,28.33
2019-04-07T08:59:22.885Z,28.67
2019-04-07T09:00:34.142Z,29.17
2019-04-07T09:01:45.399Z,29.80
2019-04-07T09:03:03.875Z,30.30
2019-04-07T09:04:07.891Z,30.90
2019-04-07T09:05:24.224Z,31.35
2019-04-07T09:06:31.572Z,31.76
2019-04-07T09:07:42.633Z,32.30
2019-04-07T09:08:54.265Z,32.99
2019-04-07T09:10:05.077Z,33.77
2019-04-07T09:11:19.986Z,34.47
2019-04-07T09:12:30.944Z,35.11
2019-04-07T09:13:41.326Z,35.61
2019-04-07T09:14:51.797Z,36.27
2019-04-07T09:16:03.599Z,36.65
2019-04-07T09:17:14.926Z,36.93
2019-04-07T09:18:26.515Z,37.04
2019-04-07T09:19:37.158Z,37.07
2019-04-07T09:20:49.415Z,37.00
2019-04-07T09:22:00.664Z,36.98
2019-04-07T09:23:11.446Z,36.95
2019-04-07T09:24:24.913Z,36.88
2019-04-07T09:25:37.864Z,36.81
2019-04-07T09:26:46.715Z,36.66
2019-04-07T09:27:58.308Z,36.48
2019-04-07T09:29:09.025Z,36.25
2019-04-07T09:30:22.263Z,36.16
2019-04-07T09:31:34.915Z,36.09
2019-04-07T09:32:46.052Z,35.91
2019-04-07T09:33:57.455Z,35.83
2019-04-07T09:35:09.092Z,35.61
2019-04-07T09:36:20.763Z,34.93
2019-04-07T09:37:33.424Z,34.55
2019-04-07T09:38:44.825Z,34.44
2019-04-07T09:40:00.505Z,34.31
2019-04-07T09:41:08.471Z,34.27
2019-04-07T09:42:23.825Z,34.35
2019-04-07T09:43:32.125Z,34.30
2019-04-07T09:44:43.245Z,34.26
2019-04-07T09:45:55.002Z,34.27
2019-04-07T09:47:06.767Z,34.31
2019-04-07T09:48:21.119Z,34.27
2019-04-07T09:49:31.011Z,34.22
2019-04-07T09:50:43.144Z,34.16
2019-04-07T09:51:55.065Z,34.04
2019-04-07T09:53:06.276Z,33.92
2019-04-07T09:54:21.082Z,33.76
2019-04-07T09:55:30.766Z,33.61
2019-04-07T09:56:42.871Z,33.30
2019-04-07T09:57:54.861Z,33.33
2019-04-07T09:59:06.702Z,33.54
2019-04-07T10:00:21.581Z,33.96
2019-04-07T10:01:29.817Z,34.52
2019-04-07T10:02:41.668Z,34.95
2019-04-07T10:03:53.571Z,35.39
2019-04-07T10:05:05.785Z,35.90
2019-04-07T10:06:18.176Z,36.51
2019-04-07T10:07:30.504Z,37.23
2019-04-07T10:08:42.018Z,38.06
2019-04-07T10:10:08.332Z,38.75
2019-04-07T10:11:06.874Z,39.39
2019-04-07T10:12:19.691Z,39.92
2019-04-07T10:13:31.784Z,40.33
2019-04-07T10:14:44.215Z,40.67
2019-04-07T10:15:56.382Z,41.01
2019-04-07T10:17:08.753Z,41.32
2019-04-07T10:18:20.488Z,41.53
2019-04-07T10:19:32.764Z,41.81
2019-04-07T10:20:44.539Z,42.16
2019-04-07T10:21:57.455Z,42.54
2019-04-07T10:23:09.469Z,42.88
2019-04-07T10:24:21.466Z,42.99
2019-04-07T10:25:33.462Z,43.07
2019-04-07T10:26:45.976Z,43.24
2019-04-07T10:27:58.453Z,43.29
2019-04-07T10:29:11.070Z,43.41
2019-04-07T10:30:24.197Z,43.64
2019-04-07T10:31:35.001Z,43.90
2019-04-07T10:32:46.902Z,44.04
2019-04-07T10:33:58.953Z,44.18
2019-04-07T10:35:11.287Z,44.41
2019-04-07T10:36:23.249Z,44.55
2019-04-07T10:37:36.239Z,44.66
2019-04-07T10:38:48.141Z,44.86
2019-04-07T10:40:01.694Z,45.03
2019-04-07T10:41:12.900Z,45.13
2019-04-07T10:42:24.674Z,45.25
2019-04-07T10:43:36.563Z,45.32
2019-04-07T10:44:49.277Z,45.39
2019-04-07T10:46:00.762Z,45.51
2019-04-07T10:47:12.852Z,45.44
2019-04-07T10:48:25.962Z,45.51
2019-04-07T10:49:37.308Z,45.65
2019-04-07T10:50:49.291Z,45.81
2019-04-07T10:52:01.285Z,46.01
2019-04-07T10:53:14.227Z,46.15
2019-04-07T10:54:25.539Z,46.16
2019-04-07T10:55:38.057Z,46.23
2019-04-07T10:56:49.862Z,46.24
2019-04-07T10:58:01.894Z,46.32
2019-04-07T10:59:14.416Z,46.43
2019-04-07T11:00:26.148Z,46.49
2019-04-07T11:01:38.275Z,46.48
2019-04-07T11:02:54.806Z,46.48
2019-04-07T11:04:02.521Z,46.41
2019-04-07T11:05:14.658Z,46.23
2019-04-07T11:06:27.263Z,46.27
2019-04-07T11:07:39.380Z,46.41
2019-04-07T11:08:51.911Z,46.56
2019-04-07T11:10:03.831Z,46.51
2019-04-07T11:11:15.801Z,45.61
2019-04-07T11:12:27.943Z,45.28
2019-04-07T11:13:40.323Z,45.21
2019-04-07T11:14:52.213Z,45.53
2019-04-07T11:16:06.291Z,45.98
2019-04-07T11:17:17.785Z,46.51
2019-04-07T11:18:29.930Z,47.02
2019-04-07T11:19:42.276Z,47.33
2019-04-07T11:20:55.770Z,47.38
2019-04-07T11:22:07.816Z,47.71
2019-04-07T11:23:19.581Z,48.05
2019-04-07T11:24:31.730Z,48.40
2019-04-07T11:25:43.989Z,48.40
2019-04-07T11:26:56.756Z,48.08
2019-04-07T11:28:08.660Z,47.62
2019-04-07T11:29:20.427Z,47.21
2019-04-07T11:30:33.241Z,46.80
2019-04-07T11:31:44.988Z,46.51
2019-04-07T11:32:57.568Z,46.21
2019-04-07T11:34:09.028Z,45.92
2019-04-07T11:35:21.212Z,45.59
2019-04-07T11:36:34.172Z,45.25
2019-04-07T11:37:45.887Z,44.73
2019-04-07T11:38:58.511Z,44.51
2019-04-07T11:40:10.639Z,44.47
2019-04-07T11:41:25.297Z,43.91
2019-04-07T11:42:35.054Z,43.56
2019-04-07T11:43:46.872Z,43.52
2019-04-07T11:44:58.648Z,43.73
2019-04-07T11:46:10.958Z,43.95
2019-04-07T11:47:23.190Z,44.22
2019-04-07T11:48:35.387Z,44.46
2019-04-07T11:49:47.447Z,44.52
2019-04-07T11:50:59.598Z,44.58
2019-04-07T11:52:12.498Z,44.39
2019-04-07T11:53:24.180Z,44.43
2019-04-07T11:54:36.951Z,44.49
2019-04-07T11:55:48.587Z,44.15
2019-04-07T11:57:00.880Z,43.90
2019-04-07T11:58:15.937Z,44.01
2019-04-07T11:59:24.704Z,44.15
2019-04-07T12:00:39.102Z,44.22
2019-04-07T12:01:50.123Z,44.23
2019-04-07T12:03:01.116Z,44.21
2019-04-07T12:04:16.052Z,44.17
2019-04-07T12:05:25.391Z,44.14
2019-04-07T12:06:37.555Z,44.07
2019-04-07T12:07:53.999Z,43.90
2019-04-07T12:09:02.235Z,43.57
2019-04-07T12:10:14.246Z,42.70
2019-04-07T12:11:26.039Z,41.34
2019-04-07T12:12:38.708Z,39.94
2019-04-07T12:13:50.963Z,38.66
2019-04-07T12:15:04.190Z,37.63
2019-04-07T12:16:16.730Z,36.80
2019-04-07T12:17:28.786Z,36.11
2019-04-07T12:18:41.711Z,35.67
2019-04-07T12:19:55.982Z,35.27
2019-04-07T12:21:07.611Z,35.28
2019-04-07T12:22:18.306Z,35.38
2019-04-07T12:23:30.671Z,35.48
2019-04-07T12:24:42.266Z,35.65
2019-04-07T12:25:54.738Z,36.00
2019-04-07T12:27:10.814Z,36.21
2019-04-07T12:28:20.384Z,36.38
2019-04-07T12:29:33.160Z,36.53
2019-04-07T12:30:44.784Z,36.56
2019-04-07T12:31:57.779Z,36.49
2019-04-07T12:33:09.825Z,36.55
2019-04-07T12:34:21.112Z,36.85
2019-04-07T12:35:34.066Z,37.25
2019-04-07T12:36:45.346Z,37.65
2019-04-07T12:37:59.124Z,38.12
2019-04-07T12:39:10.415Z,38.34
2019-04-07T12:40:22.888Z,37.59
2019-04-07T12:41:34.754Z,36.10
2019-04-07T12:42:47.101Z,34.32
2019-04-07T12:43:59.522Z,34.27
2019-04-07T12:45:11.215Z,35.14
2019-04-07T12:46:22.886Z,35.93
2019-04-07T12:47:35.486Z,36.62
2019-04-07T12:48:46.986Z,37.23
2019-04-07T12:49:59.480Z,37.87
2019-04-07T12:51:12.235Z,38.43
2019-04-07T12:52:26.196Z,38.89
2019-04-07T12:53:36.508Z,39.45
2019-04-07T12:54:47.124Z,39.94
2019-04-07T12:56:00.965Z,40.40
2019-04-07T12:57:11.160Z,40.79
2019-04-07T12:58:23.444Z,39.67
2019-04-07T12:59:35.831Z,38.75
2019-04-07T13:00:56.993Z,39.10
2019-04-07T13:02:04.496Z,39.63
2019-04-07T13:03:12.775Z,40.02
2019-04-07T13:04:25.563Z,40.44
2019-04-07T13:05:37.911Z,39.65
2019-04-07T13:06:49.119Z,38.43
2019-04-07T13:08:01.575Z,36.89
2019-04-07T13:09:13.876Z,35.18
2019-04-07T13:10:25.491Z,33.76
2019-04-07T13:11:42.799Z,32.45
2019-04-07T13:12:49.735Z,32.30
2019-04-07T13:14:05.135Z,33.14
2019-04-07T13:15:14.473Z,34.20
2019-04-07T13:16:26.416Z,35.11
2019-04-07T13:17:38.062Z,35.76
2019-04-07T13:18:49.989Z,36.12
2019-04-07T13:20:00.956Z,36.57
2019-04-07T13:21:13.383Z,37.02
2019-04-07T13:22:25.062Z,37.31
2019-04-07T13:23:37.074Z,37.33
2019-04-07T13:24:48.829Z,37.43
2019-04-07T13:26:00.798Z,37.65
2019-04-07T13:27:12.485Z,37.81
2019-04-07T13:28:24.522Z,37.90
2019-04-07T13:29:38.746Z,37.71
2019-04-07T13:30:48.841Z,37.72
2019-04-07T13:32:01.375Z,37.73
2019-04-07T13:33:14.000Z,37.68
2019-04-07T13:34:25.301Z,37.42
2019-04-07T13:35:37.295Z,36.92
2019-04-07T13:36:51.098Z,36.63
2019-04-07T13:38:01.720Z,36.38
2019-04-07T13:39:14.031Z,36.17
2019-04-07T13:40:26.262Z,35.78
2019-04-07T13:41:44.274Z,35.57
2019-04-07T13:42:50.848Z,35.58
2019-04-07T13:44:07.225Z,35.65
2019-04-07T13:45:15.357Z,35.65
2019-04-07T13:46:31.807Z,35.53
2019-04-07T13:47:42.235Z,35.44
2019-04-07T13:48:56.704Z,35.25
2019-04-07T13:50:02.717Z,35.03
2019-04-07T13:51:15.407Z,34.85
2019-04-07T13:52:26.459Z,34.74
2019-04-07T13:53:38.452Z,34.60
2019-04-07T13:54:50.435Z,34.41
2019-04-07T13:56:02.413Z,34.47
2019-04-07T13:57:14.468Z,34.39
2019-04-07T13:58:27.219Z,34.36
2019-04-07T13:59:42.899Z,34.60
2019-04-07T14:00:51.973Z,34.93
2019-04-07T14:02:05.301Z,34.75
2019-04-07T14:03:16.947Z,34.28
2019-04-07T14:04:31.669Z,34.34
2019-04-07T14:05:41.824Z,34.09
2019-04-07T14:06:53.370Z,33.54
2019-04-07T14:08:04.817Z,32.89
2019-04-07T14:09:17.006Z,32.36
2019-04-07T14:10:28.605Z,32.35
2019-04-07T14:11:52.507Z,32.70
2019-04-07T14:12:52.315Z,33.24
2019-04-07T14:14:04.594Z,33.58
2019-04-07T14:15:16.871Z,33.90
2019-04-07T14:16:29.179Z,34.11
2019-04-07T14:17:43.001Z,34.27
2019-04-07T14:18:54.510Z,34.49
2019-04-07T14:20:05.957Z,34.91
2019-04-07T14:21:17.877Z,35.22
2019-04-07T14:22:29.875Z,35.49
2019-04-07T14:23:41.066Z,35.31
2019-04-07T14:24:53.710Z,34.71
2019-04-07T14:26:05.623Z,33.90
2019-04-07T14:27:16.599Z,33.09
2019-04-07T14:28:28.697Z,32.37
2019-04-07T14:29:40.683Z,31.69
2019-04-07T14:30:54.023Z,31.04
2019-04-07T14:32:04.524Z,30.54
2019-04-07T14:33:16.663Z,30.09
2019-04-07T14:34:27.629Z,29.88
2019-04-07T14:35:39.316Z,29.43
2019-04-07T14:36:50.970Z,28.90
2019-04-07T14:38:02.696Z,28.36
2019-04-07T14:39:14.984Z,27.79
2019-04-07T14:40:26.244Z,27.31
2019-04-07T14:41:37.842Z,26.88
2019-04-07T14:42:49.562Z,26.48
2019-04-07T14:44:00.522Z,26.11
2019-04-07T14:45:12.180Z,25.80
2019-04-07T14:46:23.822Z,25.47
2019-04-07T14:47:35.951Z,25.16
2019-04-07T14:48:46.526Z,24.89
2019-04-07T14:49:57.986Z,24.64
2019-04-07T14:51:10.084Z,24.40
2019-04-07T14:52:21.086Z,24.13
2019-04-07T14:53:32.981Z,23.90
2019-04-07T14:54:44.014Z,23.74
2019-04-07T14:55:55.981Z,23.62
2019-04-07T14:57:08.770Z,23.52
2019-04-07T14:58:19.248Z,23.43
2019-04-07T14:59:29.662Z,23.36
2019-04-07T15:00:40.670Z,23.31
2019-04-07T15:01:52.387Z,23.28
2019-04-07T15:03:04.063Z,23.28
2019-04-07T15:04:14.742Z,23.32
2019-04-07T15:05:26.103Z,23.39
2019-04-07T15:06:37.497Z,23.51
2019-04-07T15:07:48.850Z,23.62
2019-04-07T15:09:03.046Z,23.71
2019-04-07T15:10:16.561Z,23.81
2019-04-07T15:11:23.861Z,23.90
2019-04-07T15:12:35.949Z,23.98
2019-04-07T15:13:47.347Z,24.06
2019-04-07T15:14:57.859Z,24.09
2019-04-07T15:16:10.014Z,24.10
2019-04-07T15:17:20.990Z,24.11
2019-04-07T15:18:31.838Z,24.10
2019-04-07T15:19:43.154Z,24.06
2019-04-07T15:20:54.476Z,23.99
2019-04-07T15:22:06.658Z,23.91
2019-04-07T15:23:17.573Z,23.81
2019-04-07T15:24:28.440Z,23.69
2019-04-07T15:25:43.922Z,23.56
2019-04-07T15:26:52.923Z,23.41
2019-04-07T15:28:03.324Z,23.23
2019-04-07T15:29:14.733Z,23.06
2019-04-07T15:30:26.494Z,22.91
2019-04-07T15:31:37.457Z,22.77
2019-04-07T15:32:48.489Z,22.64